Time;durP1;ratioP1;P1;durP2;ratioP2;P2;SDS_P1;SDS_P2;PMS_P1;PMS_P2;Temp;Humidity;BMP_temperature;BMP_pressure;BME280_temperature;BME280_humidity;BME280_pressure;Samples;Min_cycle;Max_cycle;Signal;HPM_P1;HPM_P2
2022/10/20 00:00:56;;;;;;;7.67;6.47;;;;;;;15.05;51.84;97186.50;5068728;28;20311;-80
2022/10/20 00:03:24;;;;;;;8.37;6.17;;;;;;;14.70;52.60;97198.22;5068839;28;20554;-80
2022/10/20 00:05:51;;;;;;;11.20;7.27;;;;;;;14.39;53.42;97196.59;5069468;28;20232;-81
2022/10/20 00:08:18;;;;;;;11.63;6.83;;;;;;;14.31;54.13;97196.22;5069078;28;20204;-77
2022/10/20 00:10:53;;;;;;;8.67;7.17;;;;;;;14.14;54.67;97193.69;5070103;28;20671;-78
2022/10/20 00:13:20;;;;;;;12.13;7.47;;;;;;;14.17;54.29;97197.91;5068774;28;20287;-77
2022/10/20 00:15:49;;;;;;;9.63;6.60;;;;;;;14.17;53.92;97203.94;5069068;28;20185;-78
2022/10/20 00:18:16;;;;;;;9.70;7.40;;;;;;;14.13;53.78;97206.81;5068202;28;20184;-77
2022/10/20 00:20:43;;;;;;;10.30;6.80;;;;;;;14.13;53.89;97201.59;5068307;28;20217;-77
2022/10/20 00:23:11;;;;;;;9.83;6.77;;;;;;;13.72;54.38;97186.53;5068255;28;20192;-78
2022/10/20 00:25:38;;;;;;;9.43;7.00;;;;;;;13.77;54.47;97192.34;5066887;28;20665;-81
2022/10/20 00:28:06;;;;;;;14.63;8.63;;;;;;;13.89;57.41;97177.78;5067266;28;20180;-78
2022/10/20 00:30:34;;;;;;;13.53;9.57;;;;;;;14.24;58.76;97188.81;5069606;28;20198;-80
2022/10/20 00:33:02;;;;;;;15.50;10.90;;;;;;;14.72;59.93;97185.09;5056193;28;20258;-82
2022/10/20 00:35:29;;;;;;;16.03;11.47;;;;;;;15.06;59.90;97185.59;5068102;28;20276;-82
2022/10/20 00:37:56;;;;;;;16.00;11.73;;;;;;;15.33;59.45;97181.25;5067052;28;20560;-80
2022/10/20 00:40:25;;;;;;;14.90;11.07;;;;;;;15.42;59.17;97177.25;5068103;28;20317;-81
2022/10/20 00:42:52;;;;;;;15.13;10.67;;;;;;;15.54;59.31;97178.31;5068320;28;20786;-83
2022/10/20 00:45:20;;;;;;;14.93;11.37;;;;;;;15.63;58.88;97173.31;5068059;28;20185;-80
2022/10/20 00:47:54;;;;;;;16.53;11.80;;;;;;;15.71;58.82;97183.25;5068167;28;20188;-81
2022/10/20 00:50:31;;;;;;;16.60;11.90;;;;;;;15.75;58.50;97185.59;5068588;28;20270;-78
2022/10/20 00:53:00;;;;;;;13.97;11.33;;;;;;;15.85;58.45;97186.66;5069086;28;20181;-81
2022/10/20 00:55:31;;;;;;;12.97;10.63;;;;;;;15.95;57.98;97177.31;5068907;28;20177;-80
2022/10/20 00:57:59;;;;;;;12.43;9.83;;;;;;;16.00;57.34;97182.22;5068166;28;20189;-82
2022/10/20 01:00:27;;;;;;;13.40;9.83;;;;;;;16.05;56.33;97180.19;5069776;28;20221;-83
2022/10/20 01:02:58;;;;;;;12.30;9.57;;;;;;;16.01;56.34;97183.94;5070161;28;20190;-82
2022/10/20 01:05:26;;;;;;;13.93;9.37;;;;;;;16.05;55.29;97188.00;5068361;28;20239;-81
2022/10/20 01:07:53;;;;;;;12.33;8.53;;;;;;;16.00;55.10;97190.91;5068131;28;20547;-79
2022/10/20 01:10:21;;;;;;;11.10;8.63;;;;;;;15.86;55.04;97185.75;5067229;28;20276;-81
2022/10/20 01:12:57;;;;;;;13.03;8.60;;;;;;;15.85;54.86;97191.91;5067653;28;20660;-80
2022/10/20 01:15:33;;;;;;;12.90;9.20;;;;;;;15.71;55.34;97194.56;5067667;28;20195;-82
2022/10/20 01:19:00;;;;;;;11.90;8.10;;;;;;;15.46;55.41;97194.41;5067611;28;20703;-82
2022/10/20 01:21:37;;;;;;;13.07;8.57;;;;;;;15.42;55.28;97187.69;5055470;28;20232;-80
2022/10/20 01:24:25;;;;;;;11.80;8.70;;;;;;;15.27;55.53;97184.25;5067595;28;20189;-80
2022/10/20 01:26:57;;;;;;;13.90;8.53;;;;;;;15.20;55.70;97192.56;5067424;28;20683;-82
2022/10/20 01:29:49;;;;;;;12.90;8.50;;;;;;;15.05;55.80;97176.09;5072315;28;20200;-82
2022/10/20 01:32:23;;;;;;;12.17;8.60;;;;;;;15.15;56.13;97189.38;5065956;28;20195;-79
2022/10/20 01:34:52;;;;;;;11.90;8.73;;;;;;;15.04;56.54;97186.63;5065427;28;20227;-78
2022/10/20 01:37:37;;;;;;;9.53;8.53;;;;;;;15.03;56.67;97187.53;5065818;28;20181;-80
2022/10/20 01:41:07;;;;;;;12.63;9.70;;;;;;;15.04;57.70;97194.44;5074484;28;20197;-83
2022/10/20 01:43:39;;;;;;;13.40;8.97;;;;;;;15.00;56.77;97192.97;5069505;28;20193;-83
2022/10/20 01:46:09;;;;;;;13.63;9.03;;;;;;;14.98;56.76;97187.00;5067086;28;20199;-80
2022/10/20 01:48:39;;;;;;;12.53;8.80;;;;;;;14.85;57.20;97197.31;5066977;28;20189;-80
2022/10/20 01:51:07;;;;;;;11.73;9.43;;;;;;;14.87;57.45;97178.97;5067250;28;20730;-80
2022/10/20 01:53:36;;;;;;;16.03;11.20;;;;;;;15.12;58.83;97187.00;5065519;28;20188;-82
2022/10/20 01:56:06;;;;;;;15.07;10.63;;;;;;;15.23;58.55;97194.97;5066205;28;20186;-82
2022/10/20 01:58:51;;;;;;;12.60;10.07;;;;;;;15.27;57.67;97193.88;5067042;28;20193;-82
2022/10/20 02:01:53;;;;;;;16.33;11.20;;;;;;;15.13;58.13;97194.72;5067585;28;20227;-79
2022/10/20 02:04:32;;;;;;;14.83;9.93;;;;;;;15.12;58.18;97192.19;5067790;28;20237;-80
2022/10/20 02:07:26;;;;;;;12.83;9.23;;;;;;;14.97;57.72;97182.69;5071558;28;20192;-81
2022/10/20 02:10:02;;;;;;;13.07;9.80;;;;;;;15.04;57.76;97197.06;5067120;28;20196;-80
2022/10/20 02:12:36;;;;;;;13.97;10.67;;;;;;;14.93;58.03;97189.88;5066792;28;20211;-79
2022/10/20 02:15:26;;;;;;;12.97;9.97;;;;;;;14.87;59.05;97192.00;5065396;28;20209;-80
2022/10/20 02:18:02;;;;;;;12.57;10.17;;;;;;;14.74;59.39;97207.53;5070033;28;20197;-80
2022/10/20 02:20:30;;;;;;;16.07;11.03;;;;;;;14.79;59.52;97215.94;5068934;28;20266;-80
2022/10/20 02:22:59;;;;;;;16.20;11.03;;;;;;;14.83;59.51;97216.59;5066654;28;20208;-78
2022/10/20 02:25:29;;;;;;;15.90;11.40;;;;;;;14.66;59.52;97192.38;5066980;28;20683;-82
2022/10/20 02:27:59;;;;;;;13.40;10.47;;;;;;;14.90;59.55;97207.47;5071600;28;20199;-80
2022/10/20 02:30:32;;;;;;;14.47;12.00;;;;;;;15.08;59.59;97208.97;5065615;28;20200;-79
2022/10/20 02:33:00;;;;;;;14.70;10.77;;;;;;;15.09;59.35;97210.63;5067263;28;20221;-81
2022/10/20 02:35:32;;;;;;;15.73;10.57;;;;;;;14.92;59.01;97210.84;5068399;28;20193;-78
2022/10/20 02:38:00;;;;;;;16.17;10.07;;;;;;;14.77;58.66;97211.75;5066721;28;20579;-80
2022/10/20 02:40:27;;;;;;;18.53;11.30;;;;;;;14.73;59.67;97215.47;5065517;28;20190;-80
2022/10/20 02:42:54;;;;;;;13.97;9.43;;;;;;;14.82;59.23;97238.41;5067690;28;20197;-80
2022/10/20 02:45:22;;;;;;;16.47;11.10;;;;;;;14.75;58.53;97247.50;5065208;28;20200;-78
2022/10/20 02:47:49;;;;;;;14.90;9.77;;;;;;;14.54;58.67;97233.94;5065715;28;20197;-81
2022/10/20 02:50:16;;;;;;;14.83;9.37;;;;;;;14.54;59.35;97249.59;5066071;28;20193;-79
2022/10/20 02:52:43;;;;;;;15.83;10.23;;;;;;;14.63;58.80;97255.09;5066448;28;20223;-80
2022/10/20 02:55:10;;;;;;;14.93;9.97;;;;;;;14.57;58.58;97265.88;5069150;28;20671;-78
2022/10/20 02:57:39;;;;;;;23.47;10.80;;;;;;;14.55;58.82;97246.03;5069897;28;20286;-77
2022/10/20 03:00:07;;;;;;;15.60;9.63;;;;;;;14.53;58.77;97258.31;5068668;28;20184;-77
2022/10/20 03:02:35;;;;;;;15.17;9.53;;;;;;;14.40;58.69;97255.63;5069620;28;20323;-80
2022/10/20 03:05:02;;;;;;;15.47;10.43;;;;;;;14.42;59.30;97255.53;5068924;28;20238;-82
2022/10/20 03:07:29;;;;;;;13.40;10.57;;;;;;;14.38;59.08;97259.22;5069567;28;20217;-78
2022/10/20 03:09:56;;;;;;;13.27;10.57;;;;;;;14.41;59.51;97259.88;5069989;28;20218;-77
2022/10/20 03:12:23;;;;;;;14.27;9.90;;;;;;;14.47;58.76;97256.91;5069716;28;20189;-81
2022/10/20 03:14:55;;;;;;;14.67;10.80;;;;;;;14.40;59.33;97254.75;5069685;28;20190;-78
2022/10/20 03:17:23;;;;;;;16.33;11.33;;;;;;;14.39;59.27;97259.13;5069651;28;20194;-78
2022/10/20 03:19:49;;;;;;;17.60;10.70;;;;;;;14.29;59.88;97267.56;5069368;28;20204;-78
2022/10/20 03:22:16;;;;;;;20.83;13.33;;;;;;;14.46;61.68;97267.44;5068449;28;20239;-78
2022/10/20 03:24:43;;;;;;;14.13;11.27;;;;;;;14.47;61.26;97266.50;5071533;28;20190;-77
2022/10/20 03:27:10;;;;;;;15.73;11.90;;;;;;;14.52;61.41;97254.91;5072921;28;20182;-80
2022/10/20 03:29:37;;;;;;;14.87;11.13;;;;;;;14.48;61.91;97256.00;5069388;28;20196;-82
2022/10/20 03:32:04;;;;;;;23.30;13.70;;;;;;;14.51;62.47;97262.78;5051501;28;20591;-82
2022/10/20 03:34:31;;;;;;;17.50;13.87;;;;;;;14.58;63.08;97257.16;5069848;28;20232;-81
2022/10/20 03:36:58;;;;;;;17.37;13.60;;;;;;;14.75;63.33;97252.72;5069291;28;20193;-79
2022/10/20 03:39:26;;;;;;;19.40;13.03;;;;;;;14.95;62.41;97247.16;5069818;28;20645;-81
2022/10/20 03:41:53;;;;;;;17.20;13.20;;;;;;;15.01;62.07;97250.22;5069567;28;20224;-80
2022/10/20 03:44:21;;;;;;;16.63;13.37;;;;;;;15.07;61.84;97249.00;5070638;28;20189;-79
2022/10/20 03:46:48;;;;;;;17.90;13.27;;;;;;;15.11;61.51;97256.56;5068805;28;20196;-81
2022/10/20 03:49:15;;;;;;;16.80;13.10;;;;;;;15.12;61.28;97244.38;5068233;28;20286;-81
2022/10/20 03:51:44;;;;;;;19.67;14.63;;;;;;;15.19;61.17;97262.16;5068586;28;20189;-81
2022/10/20 03:54:11;;;;;;;19.83;13.70;;;;;;;15.07;60.97;97252.47;5067048;28;20193;-79
2022/10/20 03:56:38;;;;;;;15.63;12.87;;;;;;;15.16;60.90;97282.38;5068984;28;20188;-81
2022/10/20 03:59:05;;;;;;;17.37;13.23;;;;;;;15.05;61.35;97282.19;5068691;28;20289;-81
2022/10/20 04:01:33;;;;;;;18.80;12.77;;;;;;;15.13;61.09;97300.81;5069155;28;20315;-81
2022/10/20 04:04:00;;;;;;;18.37;14.20;;;;;;;14.88;61.47;97285.78;5068209;28;20188;-80
2022/10/20 04:06:29;;;;;;;17.73;13.53;;;;;;;14.92;61.51;97291.69;5068295;28;20276;-80
2022/10/20 04:08:56;;;;;;;19.90;13.93;;;;;;;14.86;61.84;97289.44;5050455;28;20621;-82
2022/10/20 04:11:25;;;;;;;18.90;13.77;;;;;;;14.76;61.91;97281.28;5068199;28;20193;-81
2022/10/20 04:13:53;;;;;;;16.90;13.00;;;;;;;14.87;61.86;97280.66;5068922;28;20273;-83
2022/10/20 04:16:20;;;;;;;19.17;13.63;;;;;;;14.91;61.74;97287.38;5067332;28;20286;-80
2022/10/20 04:18:48;;;;;;;18.87;13.13;;;;;;;14.92;61.47;97281.25;5069357;28;20192;-80
2022/10/20 04:21:16;;;;;;;18.83;12.23;;;;;;;15.09;60.94;97294.09;5068074;28;20303;-80
2022/10/20 04:23:45;;;;;;;27.50;15.20;;;;;;;15.04;61.11;97304.84;5074181;28;20602;-81
2022/10/20 04:26:14;;;;;;;27.07;15.27;;;;;;;14.91;61.63;97300.41;5067422;28;20186;-78
2022/10/20 04:28:41;;;;;;;25.93;15.67;;;;;;;14.68;61.96;97283.50;5067293;28;20397;-81
2022/10/20 04:31:10;;;;;;;27.67;18.20;;;;;;;14.65;62.08;97291.53;5067050;28;20640;-81
2022/10/20 04:33:39;;;;;;;27.33;17.33;;;;;;;14.59;62.43;97295.31;5066241;28;20221;-81
2022/10/20 04:36:10;;;;;;;24.63;15.97;;;;;;;14.43;63.00;97304.09;5068433;28;20226;-81
2022/10/20 04:38:37;;;;;;;20.77;15.87;;;;;;;14.46;62.87;97307.38;5065757;28;20700;-81
2022/10/20 04:41:10;;;;;;;26.00;17.33;;;;;;;14.37;63.12;97305.28;5051093;28;20227;-81
2022/10/20 04:43:37;;;;;;;26.37;17.63;;;;;;;14.30;63.45;97303.94;5066178;28;20187;-80
2022/10/20 04:46:06;;;;;;;37.73;22.23;;;;;;;14.30;63.06;97316.97;5066481;28;20641;-82
2022/10/20 04:48:36;;;;;;;30.47;17.43;;;;;;;14.21;63.00;97307.03;5066711;28;20193;-81
2022/10/20 04:51:06;;;;;;;24.63;16.33;;;;;;;14.18;63.70;97319.41;5069568;28;20569;-80
2022/10/20 04:53:33;;;;;;;31.43;18.17;;;;;;;14.22;63.80;97326.94;5077093;28;20280;-81
2022/10/20 04:56:03;;;;;;;24.57;16.53;;;;;;;14.32;62.93;97322.91;5077595;28;20228;-81
2022/10/20 04:58:31;;;;;;;23.17;16.23;;;;;;;14.35;62.19;97322.75;5067808;28;20179;-81
2022/10/20 05:01:03;;;;;;;24.67;15.80;;;;;;;14.39;62.41;97324.28;5065972;28;20200;-81
2022/10/20 05:03:32;;;;;;;29.70;17.73;;;;;;;14.50;62.20;97334.09;5067397;28;20521;-80
2022/10/20 05:06:14;;;;;;;23.87;15.30;;;;;;;14.34;62.61;97341.91;5067931;28;20201;-81
2022/10/20 05:08:43;;;;;;;24.67;16.07;;;;;;;14.56;61.77;97347.63;5068544;28;20243;-81
2022/10/20 05:11:10;;;;;;;25.57;16.87;;;;;;;14.54;61.79;97335.59;5071427;28;20187;-80
2022/10/20 05:13:39;;;;;;;26.67;17.23;;;;;;;14.48;61.74;97322.91;5069540;28;20197;-81
2022/10/20 05:16:10;;;;;;;25.33;15.70;;;;;;;14.68;61.27;97362.56;5069086;28;20691;-79
2022/10/20 05:18:38;;;;;;;24.83;14.03;;;;;;;14.73;60.89;97356.25;5068080;28;20192;-78
2022/10/20 05:21:13;;;;;;;27.57;14.90;;;;;;;14.80;61.00;97363.63;5066541;28;20194;-79
2022/10/20 05:23:41;;;;;;;21.00;15.23;;;;;;;14.96;59.81;97381.84;5069190;28;20189;-81
2022/10/20 05:26:12;;;;;;;19.97;14.57;;;;;;;14.99;59.22;97384.25;5067159;28;20203;-82
2022/10/20 05:28:41;;;;;;;13.30;11.13;;;;;;;15.14;58.61;97373.78;5066991;28;20201;-80
2022/10/20 05:31:09;;;;;;;18.10;12.53;;;;;;;15.25;58.30;97379.19;5067894;28;20182;-80
2022/10/20 05:33:37;;;;;;;16.77;11.80;;;;;;;15.28;57.72;97372.97;5067591;28;20225;-79
2022/10/20 05:36:12;;;;;;;14.03;11.67;;;;;;;15.39;57.84;97392.28;5068561;28;20202;-80
2022/10/20 05:38:43;;;;;;;18.40;11.77;;;;;;;15.45;57.49;97391.13;5068042;28;20666;-80
2022/10/20 05:41:13;;;;;;;14.07;11.03;;;;;;;15.46;57.00;97404.06;5067893;28;20742;-80
2022/10/20 05:43:51;;;;;;;19.00;11.77;;;;;;;15.51;57.09;97395.13;5066831;28;20194;-80
2022/10/20 05:46:19;;;;;;;14.13;10.80;;;;;;;15.61;56.20;97417.13;5065951;28;20833;-82
2022/10/20 05:48:48;;;;;;;14.97;10.47;;;;;;;15.69;56.20;97413.16;5049319;28;20207;-80
2022/10/20 05:51:23;;;;;;;13.20;10.33;;;;;;;15.77;56.39;97438.78;5067085;28;20204;-79
2022/10/20 05:53:57;;;;;;;16.80;10.80;;;;;;;15.81;55.84;97427.22;5070501;28;20213;-80
2022/10/20 05:56:26;;;;;;;14.60;10.70;;;;;;;15.88;55.58;97436.38;5065077;28;20204;-76
2022/10/20 05:58:54;;;;;;;18.30;12.43;;;;;;;15.91;55.57;97451.88;5067753;28;20192;-79
2022/10/20 06:01:37;;;;;;;14.03;11.20;;;;;;;15.89;55.85;97458.97;5066082;28;20192;-79
2022/10/20 06:04:08;;;;;;;15.40;11.13;;;;;;;15.78;55.55;97430.88;5062532;28;20204;-79
2022/10/20 06:06:40;;;;;;;13.87;11.00;;;;;;;16.02;55.30;97471.19;5066982;28;20586;-80
2022/10/20 06:09:08;;;;;;;13.07;10.00;;;;;;;16.11;55.01;97481.09;5059829;28;20194;-79
2022/10/20 06:11:36;;;;;;;13.83;10.73;;;;;;;16.07;54.89;97474.34;5046224;28;20200;-81
2022/10/20 06:14:08;;;;;;;14.80;10.03;;;;;;;16.21;54.71;97489.22;5045135;28;20577;-80
2022/10/20 06:16:35;;;;;;;16.17;10.27;;;;;;;16.38;54.07;97490.78;5048590;28;20208;-80
2022/10/20 06:19:04;;;;;;;14.43;11.47;;;;;;;16.27;53.91;97481.84;5047137;28;20194;-82
2022/10/20 06:21:33;;;;;;;13.10;11.03;;;;;;;16.52;53.68;97482.97;5052944;28;20208;-82
2022/10/20 06:24:03;;;;;;;11.63;9.20;;;;;;;16.56;53.09;97493.13;5048488;28;20617;-81
2022/10/20 06:26:35;;;;;;;12.50;10.03;;;;;;;16.50;52.24;97456.91;5049633;28;20194;-82
2022/10/20 06:29:05;;;;;;;13.93;9.80;;;;;;;16.78;52.15;97497.84;5049284;28;20190;-77
2022/10/20 06:31:38;;;;;;;14.17;8.97;;;;;;;16.82;51.78;97502.78;5051484;28;20194;-79
2022/10/20 06:34:12;;;;;;;11.93;8.97;;;;;;;16.59;51.57;97465.97;5034726;28;20244;-78
2022/10/20 06:36:39;;;;;;;12.63;8.80;;;;;;;16.73;51.23;97507.78;5036071;28;20197;-80
2022/10/20 06:39:09;;;;;;;13.83;9.20;;;;;;;16.79;51.42;97504.78;5053143;28;20278;-82
2022/10/20 06:41:38;;;;;;;11.73;8.70;;;;;;;16.97;51.22;97519.31;5052101;28;20248;-81
2022/10/20 06:44:18;;;;;;;13.67;9.00;;;;;;;16.98;50.57;97508.72;5033861;28;20199;-80
2022/10/20 06:46:45;;;;;;;11.23;8.47;;;;;;;16.96;50.21;97501.94;5055405;28;20198;-80
2022/10/20 06:49:13;;;;;;;12.10;8.27;;;;;;;17.08;50.49;97516.84;5053792;28;20195;-77
2022/10/20 06:51:42;;;;;;;10.60;7.77;;;;;;;17.06;50.71;97513.50;5051364;28;20634;-81
2022/10/20 06:54:10;;;;;;;12.73;8.53;;;;;;;17.00;50.31;97522.56;5049398;28;20666;-80
2022/10/20 06:56:38;;;;;;;12.53;8.70;;;;;;;16.88;50.91;97509.41;5049356;28;20190;-81
2022/10/20 06:59:05;;;;;;;17.13;8.87;;;;;;;16.78;51.19;97500.47;5049059;28;20197;-81
2022/10/20 07:01:37;;;;;;;12.97;8.13;;;;;;;16.79;51.11;97512.63;5049557;28;20191;-80
2022/10/20 07:04:09;;;;;;;9.33;7.67;;;;;;;16.86;51.21;97512.13;5050507;28;20576;-79
2022/10/20 07:06:40;;;;;;;17.67;8.70;;;;;;;17.20;50.45;97516.06;5048215;28;20285;-80
2022/10/20 07:09:14;;;;;;;11.10;8.20;;;;;;;17.17;50.14;97511.00;5033030;28;20202;-80
2022/10/20 07:11:41;;;;;;;12.03;8.00;;;;;;;16.88;51.20;97536.41;5051689;28;20263;-79
2022/10/20 07:14:13;;;;;;;12.60;7.90;;;;;;;16.86;50.53;97534.81;5051171;28;20625;-78
2022/10/20 07:16:41;;;;;;;12.60;8.43;;;;;;;16.86;50.97;97511.28;5052284;28;20200;-79
2022/10/20 07:19:09;;;;;;;11.53;7.90;;;;;;;17.01;50.81;97519.03;5056209;28;20193;-83
2022/10/20 07:21:39;;;;;;;10.30;7.10;;;;;;;16.99;50.67;97531.34;5048260;28;20177;-80
2022/10/20 07:24:11;;;;;;;8.97;7.63;;;;;;;16.76;50.65;97516.25;5049531;28;20193;-79
2022/10/20 07:26:42;;;;;;;10.63;7.47;;;;;;;16.93;50.65;97525.66;5049477;28;20194;-78
2022/10/20 07:29:11;;;;;;;13.70;7.57;;;;;;;17.08;50.45;97516.84;5048655;28;20190;-80
2022/10/20 07:31:45;;;;;;;8.60;6.90;;;;;;;17.16;50.30;97514.59;5048811;28;20677;-78
2022/10/20 07:34:14;;;;;;;12.67;7.57;;;;;;;17.16;49.78;97493.66;5049317;28;20296;-77
2022/10/20 07:36:56;;;;;;;10.80;7.23;;;;;;;17.13;50.07;97491.22;5048293;28;20232;-79
2022/10/20 07:39:24;;;;;;;9.70;7.43;;;;;;;17.27;49.98;97490.34;5049795;28;20188;-78
2022/10/20 07:41:54;;;;;;;9.07;6.97;;;;;;;17.31;49.64;97502.28;5047700;28;20336;-82
2022/10/20 07:44:21;;;;;;;10.47;6.87;;;;;;;17.34;49.61;97512.53;5049845;28;20285;-82
2022/10/20 07:46:51;;;;;;;12.30;7.33;;;;;;;17.39;49.21;97500.84;5050547;28;20225;-83
2022/10/20 07:49:21;;;;;;;10.17;7.20;;;;;;;17.42;49.50;97498.00;5047522;28;20248;-80
2022/10/20 07:52:08;;;;;;;9.80;7.33;;;;;;;17.45;49.14;97505.69;5047376;28;20178;-80
2022/10/20 07:54:36;;;;;;;10.50;7.37;;;;;;;17.50;49.47;97508.84;5048208;28;20281;-81
2022/10/20 07:57:06;;;;;;;12.17;7.60;;;;;;;17.29;49.99;97491.88;5047195;28;20197;-80
2022/10/20 07:59:34;;;;;;;10.23;6.93;;;;;;;17.47;49.85;97513.44;5081507;28;20197;-82
2022/10/20 08:02:04;;;;;;;10.33;7.27;;;;;;;17.65;49.00;97507.00;5071676;28;20309;-80
2022/10/20 08:04:33;;;;;;;10.60;7.43;;;;;;;17.67;48.63;97495.47;5070815;28;20194;-82
2022/10/20 08:07:05;;;;;;;9.00;7.10;;;;;;;17.65;48.76;97510.47;5082719;28;20208;-80
2022/10/20 08:09:32;;;;;;;10.80;8.17;;;;;;;17.47;49.55;97503.78;5070330;28;20214;-80
2022/10/20 08:12:03;;;;;;;8.30;6.67;;;;;;;17.53;49.07;97523.53;5088616;28;20194;-79
2022/10/20 08:14:35;;;;;;;9.13;6.10;;;;;;;17.45;49.36;97516.16;5063528;28;20201;-79
2022/10/20 08:17:04;;;;;;;9.27;6.37;;;;;;;17.45;49.21;97526.63;5068098;28;20280;-80
2022/10/20 08:19:32;;;;;;;9.20;6.97;;;;;;;17.56;49.06;97528.53;5067272;28;20630;-81
2022/10/20 08:22:04;;;;;;;10.23;6.73;;;;;;;17.57;49.22;97522.38;5065736;28;20204;-79
2022/10/20 08:24:34;;;;;;;11.57;7.07;;;;;;;17.74;49.04;97532.59;5035742;28;20197;-83
2022/10/20 08:27:43;;;;;;;13.57;7.50;;;;;;;18.00;48.21;97534.31;5067451;28;20726;-77
2022/10/20 08:30:10;;;;;;;12.37;7.40;;;;;;;17.88;47.71;97530.75;5067514;28;20740;-80
2022/10/20 08:32:52;;;;;;;10.00;6.77;;;;;;;17.98;47.95;97551.06;5065787;28;20215;-78
2022/10/20 08:35:21;;;;;;;8.33;6.93;;;;;;;18.02;48.10;97552.53;5068376;28;20202;-77
2022/10/20 08:37:49;;;;;;;10.17;6.93;;;;;;;17.86;48.78;97542.25;5066092;28;20208;-78
2022/10/20 08:40:28;;;;;;;12.00;6.70;;;;;;;18.00;47.99;97538.69;5050583;28;20206;-81
2022/10/20 08:42:56;;;;;;;10.43;7.33;;;;;;;18.25;47.68;97547.44;5068011;28;20218;-80
2022/10/20 08:45:28;;;;;;;7.80;6.60;;;;;;;18.25;47.85;97549.22;5066338;28;20290;-80
2022/10/20 08:48:32;;;;;;;8.23;6.80;;;;;;;17.96;48.35;97552.94;5068998;28;20190;-82
2022/10/20 08:51:37;;;;;;;10.47;6.80;;;;;;;18.14;48.01;97536.81;5068376;28;20227;-81
2022/10/20 08:54:12;;;;;;;10.47;7.17;;;;;;;18.38;47.82;97555.31;5068961;28;20205;-79
2022/10/20 08:56:45;;;;;;;8.67;6.50;;;;;;;18.19;48.43;97549.63;5066039;28;20650;-77
2022/10/20 08:59:26;;;;;;;8.07;6.63;;;;;;;17.89;48.72;97553.38;5066905;28;20199;-79
2022/10/20 09:01:56;;;;;;;12.97;6.80;;;;;;;17.69;49.15;97546.00;5068306;28;20224;-79
2022/10/20 09:04:53;;;;;;;12.73;7.00;;;;;;;17.78;49.26;97563.72;5065640;28;20226;-77
2022/10/20 09:07:34;;;;;;;9.50;6.70;;;;;;;17.74;49.43;97562.22;5067222;28;20228;-79
2022/10/20 09:10:23;;;;;;;7.03;5.97;;;;;;;17.79;49.50;97568.03;5067916;28;20193;-79
2022/10/20 09:12:51;;;;;;;12.17;7.07;;;;;;;17.95;49.05;97551.28;5068335;28;20194;-79
2022/10/20 09:15:21;;;;;;;8.10;5.87;;;;;;;17.67;48.98;97560.97;5053017;28;20677;-79
2022/10/20 09:17:53;;;;;;;12.33;6.93;;;;;;;17.64;49.17;97548.06;5050420;28;20231;-78
2022/10/20 09:20:26;;;;;;;8.97;6.37;;;;;;;17.78;48.90;97563.72;5067425;28;20698;-83
2022/10/20 09:22:53;;;;;;;8.23;6.07;;;;;;;17.79;48.49;97562.78;5069543;28;20222;-79
2022/10/20 09:25:24;;;;;;;10.23;6.23;;;;;;;17.94;48.55;97560.06;5067146;28;20332;-79
2022/10/20 09:27:56;;;;;;;9.77;6.30;;;;;;;18.20;47.77;97561.78;5067486;28;20191;-79
2022/10/20 09:30:34;;;;;;;11.33;6.73;;;;;;;17.98;48.10;97553.69;5067099;28;20602;-79
2022/10/20 09:33:20;;;;;;;8.00;6.23;;;;;;;18.03;47.92;97562.09;5067017;28;20259;-82
2022/10/20 09:35:49;;;;;;;9.37;6.43;;;;;;;18.08;47.64;97534.63;5066935;28;20664;-81
2022/10/20 09:38:25;;;;;;;7.90;6.00;;;;;;;18.19;47.87;97549.63;5067354;28;20213;-80
2022/10/20 09:41:11;;;;;;;7.07;5.97;;;;;;;18.15;47.71;97558.66;5065884;28;20196;-79
2022/10/20 09:44:00;;;;;;;10.80;6.63;;;;;;;18.21;47.42;97553.84;5068016;28;20249;-79
2022/10/20 09:46:53;;;;;;;6.33;4.43;;;;;;;17.98;47.11;97524.84;5068896;28;20190;-80
2022/10/20 09:49:29;;;;;;;7.87;5.83;;;;;;;18.19;46.71;97575.84;5049752;28;20199;-80
2022/10/20 09:51:59;;;;;;;8.33;6.10;;;;;;;18.19;46.73;97576.69;5068014;28;20281;-82
2022/10/20 09:54:53;;;;;;;8.77;6.10;;;;;;;18.15;46.53;97521.94;5068553;28;20195;-82
2022/10/20 09:57:49;;;;;;;8.23;5.93;;;;;;;18.41;46.12;97539.34;5066505;28;20215;-80
2022/10/20 10:00:46;;;;;;;8.67;5.60;;;;;;;18.49;46.06;97573.78;5065641;28;20269;-84
2022/10/20 10:03:22;;;;;;;6.10;4.73;;;;;;;18.26;46.03;97543.03;5066228;28;20271;-78
2022/10/20 10:05:53;;;;;;;6.37;5.27;;;;;;;18.50;46.59;97550.09;5071275;28;20199;-80
2022/10/20 10:08:39;;;;;;;11.30;5.33;;;;;;;18.52;46.39;97544.72;5071417;28;20292;-81
2022/10/20 10:11:18;;;;;;;9.27;5.10;;;;;;;18.48;45.00;97527.53;5058807;28;20287;-75
2022/10/20 10:13:49;;;;;;;10.50;5.83;;;;;;;18.74;44.15;97538.81;5063140;28;20222;-77
2022/10/20 10:16:19;;;;;;;7.97;5.70;;;;;;;18.55;44.49;97552.38;5065119;28;20205;-75
2022/10/20 10:19:10;;;;;;;7.43;5.00;;;;;;;18.61;44.16;97536.19;5066737;28;20191;-76
2022/10/20 10:22:02;;;;;;;7.87;5.20;;;;;;;18.79;44.43;97540.19;5066820;28;20767;-79
2022/10/20 10:24:47;;;;;;;7.70;4.87;;;;;;;18.89;42.61;97522.84;5051294;28;20326;-81
2022/10/20 10:27:20;;;;;;;6.40;4.87;;;;;;;19.20;41.42;97539.84;5066759;28;20651;-81
2022/10/20 10:29:50;;;;;;;5.10;4.60;;;;;;;19.14;42.30;97556.03;5065783;28;20250;-79
2022/10/20 10:32:29;;;;;;;7.90;4.87;;;;;;;19.29;40.70;97534.75;5067487;28;20212;-77
2022/10/20 10:35:06;;;;;;;7.23;5.33;;;;;;;19.30;41.12;97544.31;5063695;28;20246;-78
2022/10/20 10:37:38;;;;;;;7.00;4.90;;;;;;;19.29;42.33;97547.88;5068057;28;20242;-79
2022/10/20 10:40:17;;;;;;;5.07;4.57;;;;;;;19.25;41.87;97533.31;5065796;28;20192;-79
2022/10/20 10:42:51;;;;;;;6.13;5.03;;;;;;;19.33;41.29;97536.25;5066881;28;20354;-79
2022/10/20 10:45:43;;;;;;;6.13;5.37;;;;;;;19.27;41.57;97531.41;5065681;28;20199;-79
2022/10/20 10:48:32;;;;;;;10.23;5.00;;;;;;;19.42;41.04;97532.97;5066043;28;20591;-80
2022/10/20 10:51:04;;;;;;;7.67;5.00;;;;;;;19.70;40.60;97517.78;5065609;28;20193;-78
2022/10/20 10:54:06;;;;;;;7.30;4.33;;;;;;;19.41;40.05;97533.88;5066500;28;20280;-83
2022/10/20 10:56:55;;;;;;;8.37;4.73;;;;;;;19.17;41.01;97527.78;5066684;28;20287;-80
2022/10/20 10:59:29;;;;;;;7.57;4.97;;;;;;;19.22;41.00;97520.41;5068507;28;20194;-79
2022/10/20 11:06:30;;;;;;;8.53;4.50;;;;;;;19.61;39.40;97495.66;5067747;28;20216;-80
2022/10/20 11:09:10;;;;;;;7.83;4.50;;;;;;;19.71;38.41;97494.00;5066032;28;20181;-79
2022/10/20 11:11:57;;;;;;;5.93;4.17;;;;;;;19.75;37.91;97499.88;5065552;28;20624;-81
2022/10/20 11:14:41;;;;;;;6.53;4.83;;;;;;;19.74;38.45;97493.75;5066912;28;20192;-83
2022/10/20 11:17:37;;;;;;;6.73;4.30;;;;;;;19.65;38.42;97494.47;5068300;28;20201;-83
2022/10/20 11:20:58;;;;;;;6.03;4.30;;;;;;;19.89;37.73;97476.84;5043614;28;20246;-83
2022/10/20 11:24:35;;;;;;;5.20;4.20;;;;;;;19.95;36.44;97488.66;5069277;28;20295;-82
2022/10/20 11:27:15;;;;;;;4.93;4.20;;;;;;;20.06;36.02;97491.34;5084128;28;20207;-82
2022/10/20 11:29:50;;;;;;;5.70;3.93;;;;;;;20.14;35.53;97478.44;5090549;28;20200;-80
2022/10/20 11:32:40;;;;;;;5.43;3.97;;;;;;;19.77;38.37;97484.81;5082257;28;20618;-83
2022/10/20 11:35:44;;;;;;;10.17;4.77;;;;;;;19.63;39.10;97495.53;5090221;28;20235;-81
2022/10/20 11:38:21;;;;;;;9.93;5.00;;;;;;;19.73;38.41;97480.75;5090125;28;20213;-83
2022/10/20 11:41:05;;;;;;;4.93;4.33;;;;;;;19.85;38.87;97477.19;5089316;28;20209;-84
2022/10/20 11:44:03;;;;;;;7.00;4.83;;;;;;;19.71;38.40;97486.13;5078477;28;20231;-81
2022/10/20 11:46:53;;;;;;;10.03;4.77;;;;;;;19.64;38.89;97487.53;5068836;28;20200;-81
2022/10/20 11:49:20;;;;;;;5.00;3.80;;;;;;;19.85;38.40;97482.44;5068457;28;20196;-84
2022/10/20 11:52:19;;;;;;;8.80;4.93;;;;;;;19.88;37.93;97453.31;5069301;28;20287;-81
2022/10/20 11:55:14;;;;;;;7.77;4.80;;;;;;;19.83;37.29;97473.84;5068211;28;20300;-82
2022/10/20 11:58:00;;;;;;;5.10;4.30;;;;;;;19.89;37.78;97471.59;5068051;28;20193;-83
2022/10/20 12:00:51;;;;;;;5.73;4.27;;;;;;;20.28;37.05;97483.50;5067792;28;20207;-82